sensor_id;sensor_type;location;lat;lon;timestamp;temperature;humidity
39951;DHT22;25629;51.444;-2.606;2023-05-21T00:02:07;14.70;99.90
39951;DHT22;25629;51.444;-2.606;2023-05-21T00:04:39;14.60;99.90
39951;DHT22;25629;51.444;-2.606;2023-05-21T00:07:05;14.60;99.90
39951;DHT22;25629;51.444;-2.606;2023-05-21T00:09:30;14.50;99.90
39951;DHT22;25629;51.444;-2.606;2023-05-21T00:11:56;14.40;99.90
39951;DHT22;25629;51.444;-2.606;2023-05-21T00:14:22;14.40;99.90
39951;DHT22;25629;51.444;-2.606;2023-05-21T00:16:47;14.40;99.90
39951;DHT22;25629;51.444;-2.606;2023-05-21T00:19:13;14.30;99.90
39951;DHT22;25629;51.444;-2.606;2023-05-21T00:21:38;14.30;99.90
39951;DHT22;25629;51.444;-2.606;2023-05-21T00:24:05;14.20;99.90
39951;DHT22;25629;51.444;-2.606;2023-05-21T00:26:31;14.20;99.90
39951;DHT22;25629;51.444;-2.606;2023-05-21T00:28:56;14.10;99.90
39951;DHT22;25629;51.444;-2.606;2023-05-21T00:31:22;14.10;99.90
39951;DHT22;25629;51.444;-2.606;2023-05-21T00:33:48;14.00;99.90
39951;DHT22;25629;51.444;-2.606;2023-05-21T00:36:13;14.00;99.90
39951;DHT22;25629;51.444;-2.606;2023-05-21T00:38:39;13.90;99.90
39951;DHT22;25629;51.444;-2.606;2023-05-21T00:41:08;13.90;99.90
39951;DHT22;25629;51.444;-2.606;2023-05-21T00:43:33;13.80;99.90
39951;DHT22;25629;51.444;-2.606;2023-05-21T00:45:59;13.80;99.90
39951;DHT22;25629;51.444;-2.606;2023-05-21T00:48:25;13.80;99.90
39951;DHT22;25629;51.444;-2.606;2023-05-21T00:50:50;13.80;99.90
39951;DHT22;25629;51.444;-2.606;2023-05-21T00:53:16;13.70;99.90
39951;DHT22;25629;51.444;-2.606;2023-05-21T00:55:44;13.70;99.90
39951;DHT22;25629;51.444;-2.606;2023-05-21T00:58:10;13.60;99.90
39951;DHT22;25629;51.444;-2.606;2023-05-21T01:00:35;13.50;99.90
39951;DHT22;25629;51.444;-2.606;2023-05-21T01:03:08;13.50;99.90
39951;DHT22;25629;51.444;-2.606;2023-05-21T01:05:35;13.50;99.90
39951;DHT22;25629;51.444;-2.606;2023-05-21T01:08:00;13.50;99.90
39951;DHT22;25629;51.444;-2.606;2023-05-21T01:10:26;13.40;99.90
39951;DHT22;25629;51.444;-2.606;2023-05-21T01:12:52;13.40;99.90
39951;DHT22;25629;51.444;-2.606;2023-05-21T01:15:19;13.30;99.90
39951;DHT22;25629;51.444;-2.606;2023-05-21T01:17:44;13.30;99.90
39951;DHT22;25629;51.444;-2.606;2023-05-21T01:20:10;13.30;99.90
39951;DHT22;25629;51.444;-2.606;2023-05-21T01:22:52;13.30;99.90
39951;DHT22;25629;51.444;-2.606;2023-05-21T01:25:18;13.30;99.90
39951;DHT22;25629;51.444;-2.606;2023-05-21T01:27:44;13.30;99.90
39951;DHT22;25629;51.444;-2.606;2023-05-21T01:30:09;13.20;99.90
39951;DHT22;25629;51.444;-2.606;2023-05-21T01:32:59;13.20;1.00
39951;DHT22;25629;51.444;-2.606;2023-05-21T01:35:22;13.20;99.90
39951;DHT22;25629;51.444;-2.606;2023-05-21T01:37:52;13.10;1.00
39951;DHT22;25629;51.444;-2.606;2023-05-21T01:42:45;13.10;1.00
39951;DHT22;25629;51.444;-2.606;2023-05-21T01:45:12;13.00;1.00
39951;DHT22;25629;51.444;-2.606;2023-05-21T01:47:38;13.00;1.00
39951;DHT22;25629;51.444;-2.606;2023-05-21T01:50:05;12.90;1.00
39951;DHT22;25629;51.444;-2.606;2023-05-21T01:52:31;12.80;1.00
39951;DHT22;25629;51.444;-2.606;2023-05-21T01:54:56;12.80;1.00
39951;DHT22;25629;51.444;-2.606;2023-05-21T01:57:22;12.70;1.00
39951;DHT22;25629;51.444;-2.606;2023-05-21T01:59:48;12.70;1.00
39951;DHT22;25629;51.444;-2.606;2023-05-21T02:02:13;12.60;1.00
39951;DHT22;25629;51.444;-2.606;2023-05-21T02:04:39;12.60;1.00
39951;DHT22;25629;51.444;-2.606;2023-05-21T02:07:05;12.50;1.00
39951;DHT22;25629;51.444;-2.606;2023-05-21T02:09:31;12.40;1.00
39951;DHT22;25629;51.444;-2.606;2023-05-21T02:11:57;12.40;1.00
39951;DHT22;25629;51.444;-2.606;2023-05-21T02:14:22;12.40;1.00
39951;DHT22;25629;51.444;-2.606;2023-05-21T02:16:49;12.40;1.00
39951;DHT22;25629;51.444;-2.606;2023-05-21T02:19:17;12.40;1.00
39951;DHT22;25629;51.444;-2.606;2023-05-21T02:21:42;12.40;1.00
39951;DHT22;25629;51.444;-2.606;2023-05-21T02:24:08;12.40;1.00
39951;DHT22;25629;51.444;-2.606;2023-05-21T02:26:33;12.30;1.00
39951;DHT22;25629;51.444;-2.606;2023-05-21T02:28:59;12.30;1.00
39951;DHT22;25629;51.444;-2.606;2023-05-21T02:31:24;12.30;17.80
39951;DHT22;25629;51.444;-2.606;2023-05-21T02:33:50;12.20;23.40
39951;DHT22;25629;51.444;-2.606;2023-05-21T02:36:16;12.20;48.10
39951;DHT22;25629;51.444;-2.606;2023-05-21T02:38:43;12.20;72.20
39951;DHT22;25629;51.444;-2.606;2023-05-21T02:41:10;12.10;99.90
39951;DHT22;25629;51.444;-2.606;2023-05-21T02:43:35;12.00;99.90
39951;DHT22;25629;51.444;-2.606;2023-05-21T02:46:01;11.90;99.90
39951;DHT22;25629;51.444;-2.606;2023-05-21T02:48:27;11.80;99.90
39951;DHT22;25629;51.444;-2.606;2023-05-21T02:50:52;11.80;99.90
39951;DHT22;25629;51.444;-2.606;2023-05-21T02:53:18;11.80;99.90
39951;DHT22;25629;51.444;-2.606;2023-05-21T02:55:44;11.70;99.90
39951;DHT22;25629;51.444;-2.606;2023-05-21T02:58:11;11.60;99.90
39951;DHT22;25629;51.444;-2.606;2023-05-21T03:00:37;11.60;99.90
39951;DHT22;25629;51.444;-2.606;2023-05-21T03:03:03;11.60;99.90
39951;DHT22;25629;51.444;-2.606;2023-05-21T03:05:29;11.60;99.90
39951;DHT22;25629;51.444;-2.606;2023-05-21T03:07:55;11.50;99.90
39951;DHT22;25629;51.444;-2.606;2023-05-21T03:10:20;11.40;99.90
39951;DHT22;25629;51.444;-2.606;2023-05-21T03:12:46;11.30;1.00
39951;DHT22;25629;51.444;-2.606;2023-05-21T03:15:11;11.30;1.00
39951;DHT22;25629;51.444;-2.606;2023-05-21T03:17:40;11.30;1.00
39951;DHT22;25629;51.444;-2.606;2023-05-21T03:20:08;11.20;1.00
39951;DHT22;25629;51.444;-2.606;2023-05-21T03:22:41;11.10;34.60
39951;DHT22;25629;51.444;-2.606;2023-05-21T03:25:07;11.10;99.90
39951;DHT22;25629;51.444;-2.606;2023-05-21T03:27:33;11.10;99.90
39951;DHT22;25629;51.444;-2.606;2023-05-21T03:29:58;11.10;99.90
39951;DHT22;25629;51.444;-2.606;2023-05-21T03:32:24;11.00;99.90
39951;DHT22;25629;51.444;-2.606;2023-05-21T03:34:50;11.00;99.90
39951;DHT22;25629;51.444;-2.606;2023-05-21T03:37:15;11.00;99.90
39951;DHT22;25629;51.444;-2.606;2023-05-21T03:39:41;11.00;99.90
39951;DHT22;25629;51.444;-2.606;2023-05-21T03:42:06;10.90;1.00
39951;DHT22;25629;51.444;-2.606;2023-05-21T03:44:32;11.00;1.00
39951;DHT22;25629;51.444;-2.606;2023-05-21T03:46:57;10.80;66.10
39951;DHT22;25629;51.444;-2.606;2023-05-21T03:49:23;10.80;1.00
39951;DHT22;25629;51.444;-2.606;2023-05-21T03:51:49;10.80;92.00
39951;DHT22;25629;51.444;-2.606;2023-05-21T03:54:15;10.80;99.90
39951;DHT22;25629;51.444;-2.606;2023-05-21T03:56:40;10.80;99.90
39951;DHT22;25629;51.444;-2.606;2023-05-21T03:59:06;10.80;99.90
39951;DHT22;25629;51.444;-2.606;2023-05-21T04:01:31;10.80;91.10
39951;DHT22;25629;51.444;-2.606;2023-05-21T04:03:57;10.80;99.90
39951;DHT22;25629;51.444;-2.606;2023-05-21T04:06:23;10.80;99.90
39951;DHT22;25629;51.444;-2.606;2023-05-21T04:08:48;10.90;93.20
39951;DHT22;25629;51.444;-2.606;2023-05-21T04:11:14;10.80;93.90
39951;DHT22;25629;51.444;-2.606;2023-05-21T04:13:40;10.80;99.90
39951;DHT22;25629;51.444;-2.606;2023-05-21T04:16:05;10.80;99.90
39951;DHT22;25629;51.444;-2.606;2023-05-21T04:18:33;10.80;99.90
39951;DHT22;25629;51.444;-2.606;2023-05-21T04:20:59;10.90;99.90
39951;DHT22;25629;51.444;-2.606;2023-05-21T04:23:26;10.90;52.90
39951;DHT22;25629;51.444;-2.606;2023-05-21T04:25:51;10.80;37.20
39951;DHT22;25629;51.444;-2.606;2023-05-21T04:28:18;10.70;86.40
39951;DHT22;25629;51.444;-2.606;2023-05-21T04:30:47;10.50;99.90
39951;DHT22;25629;51.444;-2.606;2023-05-21T04:33:14;10.40;99.90
39951;DHT22;25629;51.444;-2.606;2023-05-21T04:35:42;10.30;1.00
39951;DHT22;25629;51.444;-2.606;2023-05-21T04:38:09;10.20;66.10
39951;DHT22;25629;51.444;-2.606;2023-05-21T04:40:34;10.20;99.90
39951;DHT22;25629;51.444;-2.606;2023-05-21T04:43:00;10.20;99.90
39951;DHT22;25629;51.444;-2.606;2023-05-21T04:45:26;10.10;99.90
39951;DHT22;25629;51.444;-2.606;2023-05-21T04:47:51;10.10;99.90
39951;DHT22;25629;51.444;-2.606;2023-05-21T04:50:17;10.10;1.00
39951;DHT22;25629;51.444;-2.606;2023-05-21T04:52:43;10.20;1.00
39951;DHT22;25629;51.444;-2.606;2023-05-21T04:55:09;10.20;1.00
39951;DHT22;25629;51.444;-2.606;2023-05-21T04:57:35;10.20;1.00
39951;DHT22;25629;51.444;-2.606;2023-05-21T05:00:01;10.20;1.00
39951;DHT22;25629;51.444;-2.606;2023-05-21T05:02:28;10.30;1.00
39951;DHT22;25629;51.444;-2.606;2023-05-21T05:04:53;10.30;99.90
39951;DHT22;25629;51.444;-2.606;2023-05-21T05:07:19;10.30;99.90
39951;DHT22;25629;51.444;-2.606;2023-05-21T05:09:44;10.30;38.60
39951;DHT22;25629;51.444;-2.606;2023-05-21T05:12:10;10.30;99.90
39951;DHT22;25629;51.444;-2.606;2023-05-21T05:14:35;10.30;99.90
39951;DHT22;25629;51.444;-2.606;2023-05-21T05:17:01;10.30;99.90
39951;DHT22;25629;51.444;-2.606;2023-05-21T05:19:27;10.40;93.30
39951;DHT22;25629;51.444;-2.606;2023-05-21T05:21:52;10.50;1.00
39951;DHT22;25629;51.444;-2.606;2023-05-21T05:24:18;10.50;99.90
39951;DHT22;25629;51.444;-2.606;2023-05-21T05:26:43;10.60;99.90
39951;DHT22;25629;51.444;-2.606;2023-05-21T05:29:09;10.60;99.90
39951;DHT22;25629;51.444;-2.606;2023-05-21T05:31:35;10.70;99.90
39951;DHT22;25629;51.444;-2.606;2023-05-21T05:34:01;10.60;99.90
39951;DHT22;25629;51.444;-2.606;2023-05-21T05:36:26;10.70;99.90
39951;DHT22;25629;51.444;-2.606;2023-05-21T05:38:52;10.80;99.90
39951;DHT22;25629;51.444;-2.606;2023-05-21T05:41:17;10.90;99.90
39951;DHT22;25629;51.444;-2.606;2023-05-21T05:43:43;11.00;99.90
39951;DHT22;25629;51.444;-2.606;2023-05-21T05:46:08;11.00;1.00
39951;DHT22;25629;51.444;-2.606;2023-05-21T05:48:34;11.10;1.00
39951;DHT22;25629;51.444;-2.606;2023-05-21T05:51:00;11.20;1.00
39951;DHT22;25629;51.444;-2.606;2023-05-21T05:53:25;11.30;1.00
39951;DHT22;25629;51.444;-2.606;2023-05-21T05:55:51;11.40;1.00
39951;DHT22;25629;51.444;-2.606;2023-05-21T05:58:17;11.50;99.90
39951;DHT22;25629;51.444;-2.606;2023-05-21T06:00:42;11.60;99.90
39951;DHT22;25629;51.444;-2.606;2023-05-21T06:03:08;11.70;99.90
39951;DHT22;25629;51.444;-2.606;2023-05-21T06:05:33;11.80;99.90
39951;DHT22;25629;51.444;-2.606;2023-05-21T06:07:59;11.80;99.90
39951;DHT22;25629;51.444;-2.606;2023-05-21T06:10:24;11.80;99.90
39951;DHT22;25629;51.444;-2.606;2023-05-21T06:12:50;11.90;99.90
39951;DHT22;25629;51.444;-2.606;2023-05-21T06:15:15;11.90;99.90
39951;DHT22;25629;51.444;-2.606;2023-05-21T06:17:43;11.90;99.90
39951;DHT22;25629;51.444;-2.606;2023-05-21T06:20:09;12.00;99.90
39951;DHT22;25629;51.444;-2.606;2023-05-21T06:22:36;12.10;99.90
39951;DHT22;25629;51.444;-2.606;2023-05-21T06:25:01;12.10;99.90
39951;DHT22;25629;51.444;-2.606;2023-05-21T06:27:27;12.20;99.90
39951;DHT22;25629;51.444;-2.606;2023-05-21T06:29:52;12.40;99.90
39951;DHT22;25629;51.444;-2.606;2023-05-21T06:32:18;12.50;99.90
39951;DHT22;25629;51.444;-2.606;2023-05-21T06:34:45;12.50;99.90
39951;DHT22;25629;51.444;-2.606;2023-05-21T06:37:11;12.50;90.60
39951;DHT22;25629;51.444;-2.606;2023-05-21T06:39:36;12.40;91.10
39951;DHT22;25629;51.444;-2.606;2023-05-21T06:42:02;12.40;92.00
39951;DHT22;25629;51.444;-2.606;2023-05-21T06:44:27;12.60;91.20
39951;DHT22;25629;51.444;-2.606;2023-05-21T06:46:53;12.70;47.40
39951;DHT22;25629;51.444;-2.606;2023-05-21T06:49:19;12.90;50.30
39951;DHT22;25629;51.444;-2.606;2023-05-21T06:51:45;12.90;30.00
39951;DHT22;25629;51.444;-2.606;2023-05-21T06:54:10;12.90;27.70
39951;DHT22;25629;51.444;-2.606;2023-05-21T06:56:36;13.10;24.00
39951;DHT22;25629;51.444;-2.606;2023-05-21T06:59:01;13.30;1.00
39951;DHT22;25629;51.444;-2.606;2023-05-21T07:01:27;13.40;1.00
39951;DHT22;25629;51.444;-2.606;2023-05-21T07:03:52;13.40;1.00
39951;DHT22;25629;51.444;-2.606;2023-05-21T07:06:18;13.40;1.00
39951;DHT22;25629;51.444;-2.606;2023-05-21T07:08:44;13.60;1.00
39951;DHT22;25629;51.444;-2.606;2023-05-21T07:11:10;13.70;1.00
39951;DHT22;25629;51.444;-2.606;2023-05-21T07:13:35;13.90;1.00
39951;DHT22;25629;51.444;-2.606;2023-05-21T07:16:01;14.10;1.00
39951;DHT22;25629;51.444;-2.606;2023-05-21T07:18:27;14.20;1.00
39951;DHT22;25629;51.444;-2.606;2023-05-21T07:20:52;14.30;1.00
39951;DHT22;25629;51.444;-2.606;2023-05-21T07:23:18;14.20;1.00
39951;DHT22;25629;51.444;-2.606;2023-05-21T07:25:43;14.30;1.00
39951;DHT22;25629;51.444;-2.606;2023-05-21T07:28:09;14.50;1.00
39951;DHT22;25629;51.444;-2.606;2023-05-21T07:30:34;14.70;1.00
39951;DHT22;25629;51.444;-2.606;2023-05-21T07:33:00;14.70;1.00
39951;DHT22;25629;51.444;-2.606;2023-05-21T07:35:26;15.00;1.00
39951;DHT22;25629;51.444;-2.606;2023-05-21T07:37:51;15.00;1.00
39951;DHT22;25629;51.444;-2.606;2023-05-21T07:40:17;15.10;1.00
39951;DHT22;25629;51.444;-2.606;2023-05-21T07:42:42;15.10;1.00
39951;DHT22;25629;51.444;-2.606;2023-05-21T07:45:08;15.10;1.00
39951;DHT22;25629;51.444;-2.606;2023-05-21T07:47:34;15.20;1.00
39951;DHT22;25629;51.444;-2.606;2023-05-21T07:49:59;15.30;1.00
39951;DHT22;25629;51.444;-2.606;2023-05-21T07:52:25;15.40;1.00
39951;DHT22;25629;51.444;-2.606;2023-05-21T07:54:50;15.50;1.00
39951;DHT22;25629;51.444;-2.606;2023-05-21T07:57:16;15.60;1.00
39951;DHT22;25629;51.444;-2.606;2023-05-21T07:59:41;15.80;1.00
39951;DHT22;25629;51.444;-2.606;2023-05-21T08:02:07;15.90;99.90
39951;DHT22;25629;51.444;-2.606;2023-05-21T08:04:33;15.90;99.90
39951;DHT22;25629;51.444;-2.606;2023-05-21T08:06:58;15.80;99.90
39951;DHT22;25629;51.444;-2.606;2023-05-21T08:09:24;16.00;1.00
39951;DHT22;25629;51.444;-2.606;2023-05-21T08:11:50;16.20;99.90
39951;DHT22;25629;51.444;-2.606;2023-05-21T08:14:15;16.40;99.90
39951;DHT22;25629;51.444;-2.606;2023-05-21T08:16:41;16.70;99.90
39951;DHT22;25629;51.444;-2.606;2023-05-21T08:19:07;16.90;99.90
39951;DHT22;25629;51.444;-2.606;2023-05-21T08:21:33;17.10;99.90
39951;DHT22;25629;51.444;-2.606;2023-05-21T08:23:58;17.20;99.90
39951;DHT22;25629;51.444;-2.606;2023-05-21T08:26:24;17.40;99.90
39951;DHT22;25629;51.444;-2.606;2023-05-21T08:28:50;17.30;99.90
39951;DHT22;25629;51.444;-2.606;2023-05-21T08:31:18;17.30;99.90
39951;DHT22;25629;51.444;-2.606;2023-05-21T08:33:50;17.30;99.90
39951;DHT22;25629;51.444;-2.606;2023-05-21T08:36:16;17.50;99.90
39951;DHT22;25629;51.444;-2.606;2023-05-21T08:38:42;17.80;99.90
39951;DHT22;25629;51.444;-2.606;2023-05-21T08:41:10;18.00;99.90
39951;DHT22;25629;51.444;-2.606;2023-05-21T08:43:36;18.20;99.90
39951;DHT22;25629;51.444;-2.606;2023-05-21T08:46:02;18.20;99.90
39951;DHT22;25629;51.444;-2.606;2023-05-21T08:48:28;18.30;99.90
39951;DHT22;25629;51.444;-2.606;2023-05-21T08:50:54;18.50;99.90
39951;DHT22;25629;51.444;-2.606;2023-05-21T08:53:21;18.50;99.90
39951;DHT22;25629;51.444;-2.606;2023-05-21T08:55:47;18.50;99.90
39951;DHT22;25629;51.444;-2.606;2023-05-21T08:58:14;18.60;99.90
39951;DHT22;25629;51.444;-2.606;2023-05-21T09:00:40;18.70;99.90
39951;DHT22;25629;51.444;-2.606;2023-05-21T09:03:05;18.90;99.90
39951;DHT22;25629;51.444;-2.606;2023-05-21T09:05:39;18.90;99.90
39951;DHT22;25629;51.444;-2.606;2023-05-21T09:08:05;19.00;99.90
39951;DHT22;25629;51.444;-2.606;2023-05-21T09:10:33;19.40;99.90
39951;DHT22;25629;51.444;-2.606;2023-05-21T09:13:00;19.50;99.90
39951;DHT22;25629;51.444;-2.606;2023-05-21T09:15:25;19.70;99.90
39951;DHT22;25629;51.444;-2.606;2023-05-21T09:17:51;19.90;99.90
39951;DHT22;25629;51.444;-2.606;2023-05-21T09:20:16;19.90;99.90
39951;DHT22;25629;51.444;-2.606;2023-05-21T09:22:43;20.20;99.90
39951;DHT22;25629;51.444;-2.606;2023-05-21T09:25:12;20.40;99.90
39951;DHT22;25629;51.444;-2.606;2023-05-21T09:27:38;20.50;99.90
39951;DHT22;25629;51.444;-2.606;2023-05-21T09:30:04;20.70;99.90
39951;DHT22;25629;51.444;-2.606;2023-05-21T09:32:33;20.60;99.90
39951;DHT22;25629;51.444;-2.606;2023-05-21T09:35:16;21.00;99.90
39951;DHT22;25629;51.444;-2.606;2023-05-21T09:37:43;20.80;99.90
39951;DHT22;25629;51.444;-2.606;2023-05-21T09:42:35;21.20;99.90
39951;DHT22;25629;51.444;-2.606;2023-05-21T09:45:00;21.40;99.90
39951;DHT22;25629;51.444;-2.606;2023-05-21T09:47:26;21.30;99.90
39951;DHT22;25629;51.444;-2.606;2023-05-21T09:49:51;21.50;99.90
39951;DHT22;25629;51.444;-2.606;2023-05-21T09:52:23;21.60;99.90
39951;DHT22;25629;51.444;-2.606;2023-05-21T09:54:52;21.80;99.90
39951;DHT22;25629;51.444;-2.606;2023-05-21T09:57:27;21.90;99.90
39951;DHT22;25629;51.444;-2.606;2023-05-21T09:59:53;21.90;99.90
39951;DHT22;25629;51.444;-2.606;2023-05-21T10:02:20;22.00;99.90
39951;DHT22;25629;51.444;-2.606;2023-05-21T10:04:46;22.20;99.90
39951;DHT22;25629;51.444;-2.606;2023-05-21T10:07:13;22.40;99.90
39951;DHT22;25629;51.444;-2.606;2023-05-21T10:09:39;22.40;99.90
39951;DHT22;25629;51.444;-2.606;2023-05-21T10:12:05;22.50;99.90
39951;DHT22;25629;51.444;-2.606;2023-05-21T10:14:31;22.60;99.90
39951;DHT22;25629;51.444;-2.606;2023-05-21T10:16:58;22.50;99.90
39951;DHT22;25629;51.444;-2.606;2023-05-21T10:19:24;22.50;99.90
39951;DHT22;25629;51.444;-2.606;2023-05-21T10:21:51;22.60;99.90
39951;DHT22;25629;51.444;-2.606;2023-05-21T10:24:16;22.70;99.90
39951;DHT22;25629;51.444;-2.606;2023-05-21T10:26:42;22.80;99.90
39951;DHT22;25629;51.444;-2.606;2023-05-21T10:29:08;23.00;99.90
39951;DHT22;25629;51.444;-2.606;2023-05-21T10:31:34;22.90;99.90
39951;DHT22;25629;51.444;-2.606;2023-05-21T10:34:00;22.80;99.90
39951;DHT22;25629;51.444;-2.606;2023-05-21T10:36:28;22.60;99.90
39951;DHT22;25629;51.444;-2.606;2023-05-21T10:38:54;22.50;99.90
39951;DHT22;25629;51.444;-2.606;2023-05-21T10:41:21;22.40;99.90
39951;DHT22;25629;51.444;-2.606;2023-05-21T10:49:23;22.90;99.90
39951;DHT22;25629;51.444;-2.606;2023-05-21T10:51:58;23.00;99.90
39951;DHT22;25629;51.444;-2.606;2023-05-21T11:00:23;23.50;99.90
39951;DHT22;25629;51.444;-2.606;2023-05-21T11:02:49;22.90;99.90
39951;DHT22;25629;51.444;-2.606;2023-05-21T11:05:36;22.70;99.90
39951;DHT22;25629;51.444;-2.606;2023-05-21T11:08:02;22.60;99.90
39951;DHT22;25629;51.444;-2.606;2023-05-21T11:13:03;22.50;99.90
39951;DHT22;25629;51.444;-2.606;2023-05-21T11:15:30;22.50;99.90
39951;DHT22;25629;51.444;-2.606;2023-05-21T11:17:55;22.50;99.90
39951;DHT22;25629;51.444;-2.606;2023-05-21T11:20:21;22.70;99.90
39951;DHT22;25629;51.444;-2.606;2023-05-21T11:22:47;23.20;99.90
39951;DHT22;25629;51.444;-2.606;2023-05-21T11:25:13;23.30;99.90
39951;DHT22;25629;51.444;-2.606;2023-05-21T11:27:40;23.40;99.90
39951;DHT22;25629;51.444;-2.606;2023-05-21T11:30:06;23.70;99.90
39951;DHT22;25629;51.444;-2.606;2023-05-21T11:35:21;23.90;99.90
39951;DHT22;25629;51.444;-2.606;2023-05-21T11:37:48;23.90;99.90
39951;DHT22;25629;51.444;-2.606;2023-05-21T11:40:18;23.80;99.90
39951;DHT22;25629;51.444;-2.606;2023-05-21T11:42:47;23.60;99.90
39951;DHT22;25629;51.444;-2.606;2023-05-21T11:45:13;23.40;99.90
39951;DHT22;25629;51.444;-2.606;2023-05-21T11:47:41;23.40;99.90
39951;DHT22;25629;51.444;-2.606;2023-05-21T11:50:11;23.50;99.90
39951;DHT22;25629;51.444;-2.606;2023-05-21T11:52:37;23.60;99.90
39951;DHT22;25629;51.444;-2.606;2023-05-21T11:55:02;23.90;99.90
39951;DHT22;25629;51.444;-2.606;2023-05-21T11:57:28;24.30;99.90
39951;DHT22;25629;51.444;-2.606;2023-05-21T11:59:57;24.60;99.90
39951;DHT22;25629;51.444;-2.606;2023-05-21T12:02:23;24.10;99.90
39951;DHT22;25629;51.444;-2.606;2023-05-21T12:04:49;24.20;99.90
39951;DHT22;25629;51.444;-2.606;2023-05-21T12:07:16;24.60;99.90
39951;DHT22;25629;51.444;-2.606;2023-05-21T12:09:44;25.10;99.90
39951;DHT22;25629;51.444;-2.606;2023-05-21T12:12:10;25.30;99.90
39951;DHT22;25629;51.444;-2.606;2023-05-21T12:14:37;25.40;99.90
39951;DHT22;25629;51.444;-2.606;2023-05-21T12:17:03;25.40;99.90
39951;DHT22;25629;51.444;-2.606;2023-05-21T12:19:32;25.50;99.90
39951;DHT22;25629;51.444;-2.606;2023-05-21T12:22:01;25.40;99.90
39951;DHT22;25629;51.444;-2.606;2023-05-21T12:24:27;25.20;99.90
39951;DHT22;25629;51.444;-2.606;2023-05-21T12:26:53;25.70;99.90
39951;DHT22;25629;51.444;-2.606;2023-05-21T12:29:19;26.00;99.90
39951;DHT22;25629;51.444;-2.606;2023-05-21T12:31:46;25.70;99.90
39951;DHT22;25629;51.444;-2.606;2023-05-21T12:34:12;25.70;99.90
39951;DHT22;25629;51.444;-2.606;2023-05-21T12:36:37;26.20;99.90
39951;DHT22;25629;51.444;-2.606;2023-05-21T12:39:03;26.50;99.90
39951;DHT22;25629;51.444;-2.606;2023-05-21T12:41:29;26.10;99.90
39951;DHT22;25629;51.444;-2.606;2023-05-21T12:43:55;25.50;99.90
39951;DHT22;25629;51.444;-2.606;2023-05-21T12:46:20;25.60;99.90
39951;DHT22;25629;51.444;-2.606;2023-05-21T12:48:53;25.70;99.90
39951;DHT22;25629;51.444;-2.606;2023-05-21T12:51:19;25.70;99.90
39951;DHT22;25629;51.444;-2.606;2023-05-21T12:53:45;25.40;99.90
39951;DHT22;25629;51.444;-2.606;2023-05-21T12:56:11;25.70;99.90
39951;DHT22;25629;51.444;-2.606;2023-05-21T12:58:38;26.30;99.90
39951;DHT22;25629;51.444;-2.606;2023-05-21T13:01:10;26.80;99.90
39951;DHT22;25629;51.444;-2.606;2023-05-21T13:03:36;26.00;99.90
39951;DHT22;25629;51.444;-2.606;2023-05-21T13:06:02;26.30;99.90
39951;DHT22;25629;51.444;-2.606;2023-05-21T13:08:30;26.20;99.90
39951;DHT22;25629;51.444;-2.606;2023-05-21T13:10:55;26.00;99.90
39951;DHT22;25629;51.444;-2.606;2023-05-21T13:13:21;26.40;99.90
39951;DHT22;25629;51.444;-2.606;2023-05-21T13:15:46;26.70;99.90
39951;DHT22;25629;51.444;-2.606;2023-05-21T13:18:12;27.80;99.90
39951;DHT22;25629;51.444;-2.606;2023-05-21T13:20:37;28.00;99.90
39951;DHT22;25629;51.444;-2.606;2023-05-21T13:23:03;28.00;99.90
39951;DHT22;25629;51.444;-2.606;2023-05-21T13:25:29;28.40;99.90
39951;DHT22;25629;51.444;-2.606;2023-05-21T13:28:00;29.00;99.90
39951;DHT22;25629;51.444;-2.606;2023-05-21T13:30:26;29.50;99.90
39951;DHT22;25629;51.444;-2.606;2023-05-21T13:32:51;28.60;99.90
39951;DHT22;25629;51.444;-2.606;2023-05-21T13:35:17;28.50;99.90
39951;DHT22;25629;51.444;-2.606;2023-05-21T13:37:42;28.80;99.90
39951;DHT22;25629;51.444;-2.606;2023-05-21T13:40:08;29.00;99.90
39951;DHT22;25629;51.444;-2.606;2023-05-21T13:42:41;28.90;99.90
39951;DHT22;25629;51.444;-2.606;2023-05-21T13:45:08;28.40;99.90
39951;DHT22;25629;51.444;-2.606;2023-05-21T13:47:33;28.40;99.90
39951;DHT22;25629;51.444;-2.606;2023-05-21T13:49:59;28.50;99.90
39951;DHT22;25629;51.444;-2.606;2023-05-21T13:52:25;28.40;99.90
39951;DHT22;25629;51.444;-2.606;2023-05-21T13:54:50;27.80;99.90
39951;DHT22;25629;51.444;-2.606;2023-05-21T13:57:16;27.20;99.90
39951;DHT22;25629;51.444;-2.606;2023-05-21T13:59:41;26.90;99.90
39951;DHT22;25629;51.444;-2.606;2023-05-21T14:02:07;27.30;99.90
39951;DHT22;25629;51.444;-2.606;2023-05-21T14:04:33;28.00;99.90
39951;DHT22;25629;51.444;-2.606;2023-05-21T14:06:59;27.60;99.90
39951;DHT22;25629;51.444;-2.606;2023-05-21T14:09:25;27.00;99.90
39951;DHT22;25629;51.444;-2.606;2023-05-21T14:11:52;27.00;99.90
39951;DHT22;25629;51.444;-2.606;2023-05-21T14:14:17;26.80;99.90
39951;DHT22;25629;51.444;-2.606;2023-05-21T14:16:46;26.40;99.90
39951;DHT22;25629;51.444;-2.606;2023-05-21T14:19:12;26.90;99.90
39951;DHT22;25629;51.444;-2.606;2023-05-21T14:21:37;27.90;99.90
39951;DHT22;25629;51.444;-2.606;2023-05-21T14:24:03;27.90;99.90
39951;DHT22;25629;51.444;-2.606;2023-05-21T14:26:28;28.30;99.90
39951;DHT22;25629;51.444;-2.606;2023-05-21T14:28:54;28.00;99.90
39951;DHT22;25629;51.444;-2.606;2023-05-21T14:31:20;28.10;99.90
39951;DHT22;25629;51.444;-2.606;2023-05-21T14:33:47;27.50;99.90
39951;DHT22;25629;51.444;-2.606;2023-05-21T14:36:13;27.50;99.90
39951;DHT22;25629;51.444;-2.606;2023-05-21T14:38:38;27.20;99.90
39951;DHT22;25629;51.444;-2.606;2023-05-21T14:41:04;27.00;99.90
39951;DHT22;25629;51.444;-2.606;2023-05-21T14:43:30;27.50;99.90
39951;DHT22;25629;51.444;-2.606;2023-05-21T14:45:56;28.00;99.90
39951;DHT22;25629;51.444;-2.606;2023-05-21T14:48:21;28.70;99.90
39951;DHT22;25629;51.444;-2.606;2023-05-21T14:50:50;29.20;99.90
39951;DHT22;25629;51.444;-2.606;2023-05-21T14:53:16;29.30;99.90
39951;DHT22;25629;51.444;-2.606;2023-05-21T14:55:42;28.40;99.90
39951;DHT22;25629;51.444;-2.606;2023-05-21T14:58:07;28.70;99.90
39951;DHT22;25629;51.444;-2.606;2023-05-21T15:00:34;29.70;99.90
39951;DHT22;25629;51.444;-2.606;2023-05-21T15:02:59;29.70;99.90
39951;DHT22;25629;51.444;-2.606;2023-05-21T15:05:25;29.00;99.90
39951;DHT22;25629;51.444;-2.606;2023-05-21T15:07:52;27.50;99.90
39951;DHT22;25629;51.444;-2.606;2023-05-21T15:10:20;27.00;99.90
39951;DHT22;25629;51.444;-2.606;2023-05-21T15:12:45;26.90;99.90
39951;DHT22;25629;51.444;-2.606;2023-05-21T15:15:11;26.30;99.90
39951;DHT22;25629;51.444;-2.606;2023-05-21T15:17:37;26.70;99.90
39951;DHT22;25629;51.444;-2.606;2023-05-21T15:20:03;28.20;99.90
39951;DHT22;25629;51.444;-2.606;2023-05-21T15:22:29;28.50;99.90
39951;DHT22;25629;51.444;-2.606;2023-05-21T15:24:55;28.90;99.90
39951;DHT22;25629;51.444;-2.606;2023-05-21T15:27:20;29.00;99.90
39951;DHT22;25629;51.444;-2.606;2023-05-21T15:29:46;29.30;99.90
39951;DHT22;25629;51.444;-2.606;2023-05-21T15:32:12;30.00;99.90
39951;DHT22;25629;51.444;-2.606;2023-05-21T15:34:38;29.80;99.90